Terminal Aerodrome Forecast
Issued by NWS

Home | Current Version | Previous Version | Text Only | Print | Product List | Glossary On
Versions: 1 2 3 4 5 6 7 8 9 10 11 12 13 14
000
FTUS42 KTBW 201020 AAA
TAFLAL
TAF AMD
KLAL 201020Z 2010/2106 VRB03KT P6SM SCT250
      TEMPO 2010/2013 1SM BR BKN005
     FM201400 19005KT P6SM SCT015 BKN150
     FM201800 22009KT P6SM SCT035 BKN150
      AMD NOT SKED TIL 201100=

USA.gov is the U.S. government's official web portal to all federal, state and local government web resources and services.